Weather at Pendleton Airport

Public forecast

Using degrees Celsius for public forecast. Weather courtesy of forecast.io.

Closest aviation weather report (METAR) to Pendleton Airport

Closest report is Ottawa / Gatineau Airport, 19.8 nm (36.6 km) W. Retrieved 2020/10/20 22:00 UTC (1 hour ago):

CYND 202200Z 03005KT 15SM FEW027 BKN200 07/02 A3036 RMK SC1CI4 SLP285

Closest aviation forecast (TAF) to Pendleton Airport

Closest forecast is Ottawa / Gatineau Airport, 19.8 nm (36.6 km) W. Retrieved 2020/10/20 18:00 UTC (5 hours ago):

TAF CYND 201746Z 2018/2101 34008KT P6SM SCT020 TEMPO 2018/2020 BKN020 FM202000 34006KT P6SM SCT030 BKN230 FM202300 VRB03KT P6SM FEW025 BKN220 RMK NXT FCST WILL BE ISSUED AT 211245Z